Time;durP1;ratioP1;P1;durP2;ratioP2;P2;SDS_P1;SDS_P2;PMS_P1;PMS_P2;Temp;Humidity;BMP_temperature;BMP_pressure;BME280_temperature;BME280_humidity;BME280_pressure;Samples;Min_cycle;Max_cycle;Signal;HPM_P1;HPM_P2
2023/01/18 05:08:41;;;;;;;10.60;5.75;;;1.50;99.90;;;;;;5031771;28;20271;-65
2023/01/18 05:11:15;;;;;;;11.85;7.28;;;1.50;99.90;;;;;;5034121;28;20184;-65
2023/01/18 05:13:41;;;;;;;6.80;6.10;;;1.50;99.90;;;;;;5031409;28;20170;-63
2023/01/18 05:16:12;;;;;;;11.77;7.63;;;1.50;99.90;;;;;;5014017;28;20171;-63
2023/01/18 05:18:37;;;;;;;8.38;6.65;;;1.50;99.90;;;;;;5014545;28;20194;-63
2023/01/18 05:21:03;;;;;;;6.93;6.17;;;1.50;99.90;;;;;;5014034;28;20213;-64
2023/01/18 05:23:29;;;;;;;8.20;6.90;;;1.50;99.90;;;;;;5012721;28;20589;-64
2023/01/18 05:25:55;;;;;;;10.93;7.27;;;1.50;99.90;;;;;;5014105;28;20217;-66
2023/01/18 05:28:23;;;;;;;6.78;5.85;;;1.50;99.90;;;;;;5013880;28;20257;-63
2023/01/18 05:30:49;;;;;;;14.98;6.45;;;1.50;99.90;;;;;;5014007;28;20617;-63
2023/01/18 05:33:16;;;;;;;7.40;5.30;;;1.50;99.90;;;;;;5012746;28;20173;-64
2023/01/18 05:35:50;;;;;;;10.85;4.70;;;1.50;99.90;;;;;;5013230;28;20923;-65
2023/01/18 05:38:16;;;;;;;7.43;4.80;;;1.50;99.90;;;;;;5013926;28;20253;-63
2023/01/18 05:40:48;;;;;;;6.03;5.32;;;1.50;99.90;;;;;;5013649;28;20518;-63
2023/01/18 05:43:15;;;;;;;6.15;5.50;;;1.40;99.90;;;;;;4995934;28;20171;-64
2023/01/18 05:45:42;;;;;;;6.25;5.18;;;1.40;99.90;;;;;;5013753;28;20636;-63
2023/01/18 05:48:08;;;;;;;6.30;4.65;;;1.40;99.90;;;;;;5013613;28;20202;-64
2023/01/18 05:50:33;;;;;;;5.70;4.55;;;1.40;99.90;;;;;;5013589;28;20241;-65
2023/01/18 05:52:59;;;;;;;7.40;4.67;;;1.30;99.90;;;;;;5013293;28;20617;-63
2023/01/18 05:55:26;;;;;;;7.90;4.23;;;1.30;99.90;;;;;;5013651;28;20208;-64
2023/01/18 05:57:52;;;;;;;9.98;5.50;;;1.30;99.90;;;;;;5013840;28;20502;-64
2023/01/18 06:00:18;;;;;;;3.73;3.43;;;1.30;99.90;;;;;;5014037;28;20257;-65
2023/01/18 06:02:44;;;;;;;3.65;3.35;;;1.30;99.90;;;;;;5001353;28;20187;-65
2023/01/18 06:05:10;;;;;;;3.80;3.50;;;1.30;99.90;;;;;;5004016;28;20190;-63
2023/01/18 06:07:36;;;;;;;4.10;3.55;;;1.30;99.90;;;;;;4998753;28;20325;-63
2023/01/18 06:10:02;;;;;;;4.97;3.67;;;1.30;99.90;;;;;;4993980;28;20230;-63
2023/01/18 06:12:27;;;;;;;5.00;4.23;;;1.20;99.90;;;;;;4993953;28;20183;-60
2023/01/18 06:14:53;;;;;;;4.73;4.13;;;1.20;99.90;;;;;;4997864;28;20481;-68
2023/01/18 06:17:18;;;;;;;4.40;4.07;;;1.20;99.90;;;;;;5008728;28;20198;-63
2023/01/18 06:19:44;;;;;;;4.03;3.73;;;1.20;99.90;;;;;;5003801;28;20181;-64
2023/01/18 06:22:10;;;;;;;3.80;3.30;;;1.20;99.90;;;;;;5003581;28;20182;-64
2023/01/18 06:24:35;;;;;;;8.00;3.27;;;1.20;99.90;;;;;;4983585;28;20198;-64
2023/01/18 06:27:02;;;;;;;3.70;3.20;;;1.20;99.90;;;;;;5000582;28;20191;-65
2023/01/18 06:29:28;;;;;;;6.13;4.18;;;1.30;99.90;;;;;;4993533;28;20193;-65
2023/01/18 06:31:54;;;;;;;4.10;3.70;;;1.20;99.90;;;;;;4993716;28;20167;-67
2023/01/18 06:34:19;;;;;;;5.17;3.87;;;1.30;99.90;;;;;;4991920;28;20738;-66
2023/01/18 06:36:45;;;;;;;4.87;3.57;;;1.30;99.90;;;;;;5016825;28;20297;-66
2023/01/18 06:39:11;;;;;;;4.17;3.77;;;1.30;99.90;;;;;;5016286;28;20175;-68
2023/01/18 06:41:37;;;;;;;6.03;4.97;;;1.30;99.90;;;;;;5016567;28;20228;-68
2023/01/18 06:44:02;;;;;;;4.93;4.50;;;1.30;99.90;;;;;;5016249;28;20198;-67
2023/01/18 06:46:28;;;;;;;5.70;5.20;;;1.30;99.90;;;;;;5016707;28;20429;-66
2023/01/18 06:48:54;;;;;;;5.37;4.63;;;1.30;99.90;;;;;;5016255;28;20457;-68
2023/01/18 06:51:20;;;;;;;5.73;3.60;;;1.30;99.90;;;;;;5016440;28;20173;-66
2023/01/18 06:53:46;;;;;;;5.07;4.55;;;1.30;99.90;;;;;;5016338;28;20183;-66
2023/01/18 06:56:13;;;;;;;4.82;4.30;;;1.30;99.90;;;;;;5016494;28;20167;-66
2023/01/18 06:58:39;;;;;;;5.45;4.20;;;1.30;99.90;;;;;;4991701;28;20234;-66
2023/01/18 07:01:05;;;;;;;4.47;3.90;;;1.40;99.90;;;;;;5011957;28;20575;-66
2023/01/18 07:03:32;;;;;;;7.03;5.25;;;1.40;99.90;;;;;;5005028;28;20548;-65
2023/01/18 07:05:59;;;;;;;5.55;4.00;;;1.40;99.90;;;;;;4998692;28;20182;-66
2023/01/18 07:08:26;;;;;;;9.07;5.68;;;1.40;99.90;;;;;;5016145;28;20190;-65
2023/01/18 07:10:53;;;;;;;4.55;4.07;;;1.40;99.90;;;;;;5016235;28;20167;-67
2023/01/18 07:13:19;;;;;;;5.07;3.28;;;1.40;99.90;;;;;;5012834;28;20225;-66
2023/01/18 07:15:52;;;;;;;6.20;4.97;;;1.40;99.90;;;;;;5016034;28;20191;-67
2023/01/18 07:18:18;;;;;;;8.00;4.40;;;1.50;99.90;;;;;;5007616;28;20174;-66
2023/01/18 07:20:44;;;;;;;4.50;4.20;;;1.50;99.90;;;;;;5013316;28;20179;-65
2023/01/18 07:23:09;;;;;;;5.37;4.20;;;1.50;99.90;;;;;;5015929;28;20182;-67
2023/01/18 07:25:35;;;;;;;6.40;3.10;;;1.50;99.90;;;;;;5003251;28;20221;-66
2023/01/18 07:28:01;;;;;;;6.77;4.23;;;1.50;99.90;;;;;;4978927;28;20263;-67
2023/01/18 07:30:26;;;;;;;8.97;4.80;;;1.50;99.90;;;;;;5013228;28;20297;-66
2023/01/18 07:32:52;;;;;;;4.30;3.90;;;1.40;99.90;;;;;;4997935;28;20417;-68
2023/01/18 07:35:22;;;;;;;5.13;4.63;;;1.50;99.90;;;;;;4998127;28;20226;-66
2023/01/18 07:37:54;;;;;;;4.82;4.10;;;1.50;99.90;;;;;;4998158;28;20764;-66
2023/01/18 07:40:20;;;;;;;3.83;3.42;;;1.50;99.90;;;;;;5003506;28;20179;-66
2023/01/18 07:42:56;;;;;;;4.80;4.00;;;1.40;99.90;;;;;;4996054;28;20175;-66
2023/01/18 07:45:22;;;;;;;4.90;4.10;;;1.40;99.90;;;;;;5004176;28;20190;-66
2023/01/18 07:47:48;;;;;;;9.57;5.07;;;1.40;99.90;;;;;;5015825;28;20171;-66
2023/01/18 07:50:14;;;;;;;8.75;4.45;;;1.40;99.90;;;;;;5000909;28;20198;-67
2023/01/18 07:52:40;;;;;;;7.82;5.10;;;1.40;99.90;;;;;;5013352;28;20179;-66
2023/01/18 07:55:06;;;;;;;8.57;6.43;;;1.40;99.90;;;;;;5009600;28;20683;-67
2023/01/18 07:57:31;;;;;;;8.40;5.17;;;1.40;99.90;;;;;;5005508;28;20180;-65
2023/01/18 07:59:57;;;;;;;8.23;5.57;;;1.40;99.90;;;;;;5003076;28;20550;-65
2023/01/18 08:02:23;;;;;;;6.93;5.93;;;1.40;99.90;;;;;;4998560;28;20645;-65
2023/01/18 08:04:51;;;;;;;7.10;5.53;;;1.40;99.90;;;;;;5006826;28;20564;-65
2023/01/18 08:07:17;;;;;;;7.68;5.80;;;1.40;99.90;;;;;;5004411;28;20248;-65
2023/01/18 08:09:43;;;;;;;10.40;6.97;;;1.40;99.90;;;;;;5004784;28;20199;-65
2023/01/18 08:12:12;;;;;;;9.37;6.80;;;1.40;99.90;;;;;;5005913;28;20401;-65
2023/01/18 08:14:39;;;;;;;9.90;6.88;;;1.40;99.90;;;;;;5004341;28;20253;-65
2023/01/18 08:17:05;;;;;;;9.52;7.13;;;1.40;99.90;;;;;;5004352;28;20194;-62
2023/01/18 08:19:31;;;;;;;7.60;6.85;;;1.40;99.90;;;;;;5005747;28;20660;-65
2023/01/18 08:21:57;;;;;;;9.77;6.47;;;1.40;99.90;;;;;;5009992;28;20254;-66
2023/01/18 08:24:22;;;;;;;10.40;7.70;;;1.40;99.90;;;;;;5004719;28;20278;-66
2023/01/18 08:26:48;;;;;;;8.97;6.87;;;1.50;99.90;;;;;;4995786;28;20187;-65
2023/01/18 08:29:13;;;;;;;7.70;5.83;;;1.50;99.90;;;;;;4995322;28;20287;-64
2023/01/18 08:31:39;;;;;;;7.50;6.33;;;1.50;99.90;;;;;;4978054;28;20168;-65
2023/01/18 08:34:04;;;;;;;9.23;7.10;;;1.50;99.90;;;;;;4993668;28;20186;-65
2023/01/18 08:36:30;;;;;;;12.17;8.37;;;1.50;99.90;;;;;;4998593;28;20175;-65
2023/01/18 08:38:56;;;;;;;11.93;7.10;;;1.50;99.90;;;;;;4979346;28;20172;-66
2023/01/18 08:41:27;;;;;;;8.15;7.00;;;1.50;99.90;;;;;;4995218;28;20175;-65
2023/01/18 08:43:54;;;;;;;7.97;6.47;;;1.50;99.90;;;;;;4994802;28;20195;-66
2023/01/18 08:46:20;;;;;;;8.38;6.82;;;1.60;99.90;;;;;;4997613;28;20554;-65
2023/01/18 08:48:53;;;;;;;12.23;7.82;;;1.60;99.90;;;;;;5009976;28;20249;-66
2023/01/18 08:51:21;;;;;;;8.27;6.40;;;1.60;99.90;;;;;;4995920;28;20586;-65
2023/01/18 08:53:50;;;;;;;8.18;6.20;;;1.60;99.90;;;;;;5013872;28;20186;-66
2023/01/18 08:56:16;;;;;;;5.97;5.38;;;1.70;99.90;;;;;;5014403;28;20170;-66
2023/01/18 08:58:42;;;;;;;7.13;6.03;;;1.70;99.90;;;;;;5011395;28;20269;-65
2023/01/18 09:01:08;;;;;;;6.73;6.10;;;1.70;99.90;;;;;;5005094;28;20254;-65
2023/01/18 09:03:35;;;;;;;9.02;6.45;;;1.80;99.90;;;;;;5003193;28;20537;-65
2023/01/18 09:06:02;;;;;;;8.68;6.32;;;1.70;99.90;;;;;;5003560;28;20155;-64
2023/01/18 09:08:28;;;;;;;7.60;5.63;;;1.80;99.90;;;;;;5004724;28;20233;-63
2023/01/18 09:10:54;;;;;;;10.13;6.40;;;1.80;99.90;;;;;;4997113;28;20171;-65
2023/01/18 09:13:20;;;;;;;9.30;7.03;;;1.90;99.90;;;;;;4999451;28;20248;-65
2023/01/18 09:15:45;;;;;;;6.30;5.70;;;1.90;99.90;;;;;;5005262;28;20202;-66
2023/01/18 09:18:12;;;;;;;6.53;5.90;;;1.90;99.90;;;;;;5014011;28;20528;-66
2023/01/18 09:20:37;;;;;;;8.13;6.72;;;2.00;99.90;;;;;;5014087;28;20521;-65
2023/01/18 09:23:05;;;;;;;8.93;7.07;;;2.00;99.90;;;;;;4997872;28;20215;-67
2023/01/18 09:25:31;;;;;;;7.97;5.22;;;2.00;99.90;;;;;;5000678;28;20573;-67
2023/01/18 09:27:56;;;;;;;9.77;5.17;;;2.00;99.90;;;;;;5006314;28;20186;-65
2023/01/18 09:30:22;;;;;;;7.53;5.23;;;2.00;99.90;;;;;;4998411;28;20249;-66
2023/01/18 09:32:47;;;;;;;9.00;6.10;;;2.10;99.90;;;;;;4994286;28;20637;-67
2023/01/18 09:35:17;;;;;;;7.17;6.20;;;2.00;99.90;;;;;;4994127;28;20226;-66
2023/01/18 09:37:44;;;;;;;6.43;5.60;;;2.10;99.90;;;;;;5000232;28;20186;-67
2023/01/18 09:40:18;;;;;;;7.13;5.28;;;2.00;99.90;;;;;;5005262;28;20171;-67
2023/01/18 09:42:46;;;;;;;9.10;6.55;;;2.00;99.90;;;;;;4995949;28;20666;-68
2023/01/18 09:45:30;;;;;;;6.85;5.80;;;2.00;99.90;;;;;;5010166;28;20601;-67
2023/01/18 09:48:04;;;;;;;6.65;4.68;;;2.00;99.90;;;;;;5009920;28;20193;-67
2023/01/18 09:50:40;;;;;;;6.00;5.40;;;2.00;99.90;;;;;;4994188;28;20222;-68
2023/01/18 09:53:26;;;;;;;5.10;4.63;;;2.00;99.90;;;;;;5012268;28;20471;-67
2023/01/18 09:56:02;;;;;;;5.55;3.85;;;1.90;99.90;;;;;;5013474;28;20191;-68
2023/01/18 09:58:46;;;;;;;5.75;5.25;;;1.90;99.90;;;;;;5005681;28;20254;-68
2023/01/18 10:01:18;;;;;;;5.00;4.18;;;1.90;99.90;;;;;;5013340;28;20270;-68
2023/01/18 10:03:50;;;;;;;7.90;5.35;;;1.90;99.90;;;;;;5011210;28;20190;-67
2023/01/18 10:06:46;;;;;;;6.18;5.10;;;1.90;99.90;;;;;;5006539;28;20159;-68
2023/01/18 10:09:21;;;;;;;4.75;4.15;;;1.90;99.90;;;;;;5014484;28;20237;-67
2023/01/18 10:12:05;;;;;;;7.78;4.10;;;1.90;99.90;;;;;;5017018;28;20220;-68
2023/01/18 10:14:53;;;;;;;4.93;3.95;;;1.90;99.90;;;;;;5015785;28;20195;-69
2023/01/18 10:17:22;;;;;;;5.80;4.38;;;1.90;99.90;;;;;;5017340;28;20182;-68
2023/01/18 10:19:49;;;;;;;5.75;4.97;;;1.90;99.90;;;;;;5017429;28;20167;-68
2023/01/18 10:22:36;;;;;;;5.05;3.33;;;2.00;99.90;;;;;;5017443;28;20201;-68
2023/01/18 10:25:13;;;;;;;4.60;3.67;;;2.00;99.90;;;;;;5017071;28;20233;-68
2023/01/18 10:28:02;;;;;;;6.05;3.50;;;2.00;99.90;;;;;;5017223;28;20229;-69
2023/01/18 10:31:20;;;;;;;6.20;4.18;;;2.00;99.90;;;;;;5017260;28;20218;-68
2023/01/18 10:33:50;;;;;;;5.18;3.03;;;2.00;99.90;;;;;;4986161;28;20221;-68
2023/01/18 10:36:25;;;;;;;5.22;4.72;;;2.10;99.90;;;;;;5016994;28;20163;-68
2023/01/18 10:38:53;;;;;;;11.63;5.10;;;2.20;99.90;;;;;;4999437;28;20521;-68
2023/01/18 10:41:27;;;;;;;4.78;4.18;;;2.20;99.90;;;;;;5017054;28;20193;-69
2023/01/18 10:43:53;;;;;;;5.43;4.15;;;2.20;99.90;;;;;;5016413;28;20207;-68
2023/01/18 10:46:20;;;;;;;5.55;4.80;;;2.20;99.90;;;;;;5016981;28;20198;-68
2023/01/18 10:48:50;;;;;;;7.28;4.25;;;2.20;99.90;;;;;;5016908;28;20249;-68
2023/01/18 10:51:31;;;;;;;4.50;4.10;;;2.30;99.90;;;;;;5016920;28;20195;-69
2023/01/18 10:53:57;;;;;;;7.22;6.10;;;2.40;99.90;;;;;;5016119;28;20194;-68
2023/01/18 10:56:25;;;;;;;4.10;3.70;;;2.40;99.90;;;;;;5016732;28;20688;-68
2023/01/18 10:58:50;;;;;;;4.90;4.28;;;2.60;99.90;;;;;;5016685;28;20629;-68
2023/01/18 11:01:21;;;;;;;4.90;4.37;;;2.70;99.90;;;;;;5016546;28;20229;-69
2023/01/18 11:03:50;;;;;;;5.07;4.68;;;2.80;99.90;;;;;;5016214;28;20195;-69
2023/01/18 11:06:19;;;;;;;11.77;4.20;;;2.90;99.90;;;;;;5016359;28;20166;-69
2023/01/18 11:08:45;;;;;;;5.43;4.97;;;3.10;99.90;;;;;;5016008;28;20217;-69
2023/01/18 11:12:32;;;;;;;6.18;3.53;;;3.20;99.90;;;;;;5016212;28;20540;-68
2023/01/18 11:14:29;;;;;;;5.07;3.85;;;3.20;99.90;;;;;;5015784;28;20192;-68
2023/01/18 11:17:10;;;;;;;3.97;3.65;;;3.20;99.90;;;;;;5016666;28;20187;-68
2023/01/18 11:19:36;;;;;;;5.72;4.38;;;3.20;99.90;;;;;;5016606;28;20167;-69
2023/01/18 11:22:09;;;;;;;4.43;4.05;;;3.20;99.90;;;;;;5016149;28;20208;-68
2023/01/18 11:24:36;;;;;;;3.90;3.50;;;3.20;99.90;;;;;;5015850;28;20281;-68
2023/01/18 11:27:24;;;;;;;3.15;2.95;;;3.10;99.90;;;;;;5016344;28;20170;-68
2023/01/18 11:29:49;;;;;;;3.83;3.03;;;3.10;99.90;;;;;;5016121;28;20237;-68
2023/01/18 11:32:26;;;;;;;3.70;3.13;;;3.10;99.90;;;;;;5016368;28;20238;-68
2023/01/18 11:34:58;;;;;;;4.78;4.20;;;3.00;99.90;;;;;;5015687;28;20241;-69
2023/01/18 11:37:27;;;;;;;4.53;3.97;;;2.90;99.90;;;;;;5015717;28;20258;-68
2023/01/18 11:39:52;;;;;;;5.57;3.55;;;3.00;99.90;;;;;;5015917;28;20219;-69
2023/01/18 11:42:33;;;;;;;5.03;4.33;;;3.00;99.90;;;;;;4998400;28;20196;-68
2023/01/18 11:45:24;;;;;;;3.45;2.60;;;3.00;99.90;;;;;;5015656;28;20195;-68
2023/01/18 11:47:56;;;;;;;7.53;3.75;;;3.00;99.90;;;;;;5015992;28;20583;-69
2023/01/18 11:50:42;;;;;;;3.95;3.42;;;3.00;99.90;;;;;;5015969;28;20199;-68
2023/01/18 11:53:44;;;;;;;6.00;3.47;;;3.00;99.90;;;;;;5015270;28;20580;-69
2023/01/18 11:56:13;;;;;;;3.88;3.45;;;3.00;99.90;;;;;;5015801;28;20178;-69
2023/01/18 11:58:40;;;;;;;3.40;3.10;;;3.00;99.90;;;;;;5015639;28;20171;-69
2023/01/18 12:01:25;;;;;;;5.05;4.50;;;2.90;99.90;;;;;;5015611;28;20675;-68
2023/01/18 12:04:32;;;;;;;6.07;2.85;;;2.80;99.90;;;;;;5015235;28;20196;-68
2023/01/18 12:07:15;;;;;;;5.43;3.78;;;2.80;99.90;;;;;;4975556;28;20214;-69
2023/01/18 12:09:52;;;;;;;4.30;3.20;;;2.80;99.90;;;;;;4997676;28;20206;-68
2023/01/18 12:12:37;;;;;;;5.20;3.22;;;2.80;99.90;;;;;;5015460;28;20173;-68
2023/01/18 12:15:22;;;;;;;5.80;5.03;;;2.70;99.90;;;;;;5015174;28;20182;-69
2023/01/18 12:17:59;;;;;;;2.92;2.63;;;2.70;99.90;;;;;;5015209;28;20181;-68
2023/01/18 12:20:59;;;;;;;3.72;3.13;;;2.70;99.90;;;;;;5015631;28;20170;-68
2023/01/18 12:23:39;;;;;;;3.63;3.03;;;2.60;99.90;;;;;;4994900;28;20179;-68
2023/01/18 12:26:29;;;;;;;3.97;3.58;;;2.50;99.90;;;;;;5012654;28;20218;-69
2023/01/18 12:29:16;;;;;;;4.90;2.95;;;2.50;99.90;;;;;;4995511;28;20287;-66
2023/01/18 12:32:07;;;;;;;3.92;2.90;;;2.50;99.90;;;;;;4997204;28;20176;-68
2023/01/18 12:34:54;;;;;;;4.38;3.00;;;2.40;99.90;;;;;;4997429;28;20195;-68
2023/01/18 12:37:35;;;;;;;3.25;2.95;;;2.50;99.90;;;;;;5005154;28;20179;-67
2023/01/18 12:40:21;;;;;;;8.82;3.75;;;2.50;99.90;;;;;;5002773;28;20255;-69
2023/01/18 12:42:49;;;;;;;14.35;4.07;;;2.50;99.90;;;;;;4994865;28;20537;-68
2023/01/18 12:45:37;;;;;;;4.82;3.45;;;2.60;99.90;;;;;;4997673;28;20195;-68
2023/01/18 12:48:07;;;;;;;3.42;3.10;;;2.60;99.90;;;;;;5005439;28;20180;-69
2023/01/18 12:50:38;;;;;;;5.75;3.47;;;2.60;99.90;;;;;;5007894;28;20306;-68
2023/01/18 12:53:43;;;;;;;5.15;3.20;;;2.60;99.90;;;;;;4986449;28;20171;-72
2023/01/18 12:56:26;;;;;;;5.47;4.90;;;2.70;99.90;;;;;;4998116;28;20194;-66
2023/01/18 12:58:56;;;;;;;4.97;4.38;;;2.80;99.90;;;;;;5014408;28;20167;-66
2023/01/18 13:01:25;;;;;;;4.28;3.88;;;2.70;99.90;;;;;;5008662;28;20180;-68
2023/01/18 13:03:56;;;;;;;5.82;3.75;;;2.80;99.90;;;;;;4980943;28;20657;-67
2023/01/18 13:06:24;;;;;;;3.65;3.35;;;2.80;99.90;;;;;;4995628;28;20186;-67
2023/01/18 13:08:59;;;;;;;3.47;3.20;;;2.80;99.90;;;;;;5005036;28;20187;-66
2023/01/18 13:11:46;;;;;;;5.32;3.25;;;2.80;99.90;;;;;;5001780;28;20205;-65
2023/01/18 13:14:37;;;;;;;3.42;2.97;;;2.90;99.90;;;;;;5013691;28;20207;-67
2023/01/18 13:17:26;;;;;;;4.68;3.60;;;2.90;99.90;;;;;;5014455;28;20186;-68
2023/01/18 13:20:01;;;;;;;4.40;3.70;;;3.00;99.90;;;;;;4995678;28;20174;-71
2023/01/18 13:22:39;;;;;;;6.63;3.65;;;3.00;99.90;;;;;;4990946;28;20260;-67
2023/01/18 13:25:07;;;;;;;4.75;3.47;;;3.00;99.90;;;;;;5008610;28;20199;-67
2023/01/18 13:27:34;;;;;;;2.53;2.33;;;3.00;99.90;;;;;;4994493;28;20163;-67
2023/01/18 13:30:08;;;;;;;3.72;3.10;;;3.00;99.90;;;;;;4994300;28;20211;-67
2023/01/18 13:32:36;;;;;;;5.40;3.60;;;3.00;99.90;;;;;;4998230;28;20230;-67
2023/01/18 13:35:15;;;;;;;5.38;3.75;;;2.90;99.90;;;;;;5005168;28;20220;-67
2023/01/18 13:37:46;;;;;;;15.23;3.05;;;3.00;99.90;;;;;;5004605;28;20298;-67
2023/01/18 13:40:24;;;;;;;5.90;3.70;;;3.00;99.90;;;;;;5003173;28;20562;-67
2023/01/18 13:42:50;;;;;;;3.20;3.00;;;2.90;99.90;;;;;;5001624;28;20174;-67
2023/01/18 13:45:25;;;;;;;3.17;2.87;;;2.90;99.90;;;;;;5003067;28;20190;-70
2023/01/18 13:47:57;;;;;;;3.70;3.38;;;2.90;99.90;;;;;;5004657;28;20187;-67
2023/01/18 13:50:33;;;;;;;3.38;3.08;;;2.80;99.90;;;;;;5005218;28;20219;-67
2023/01/18 13:53:19;;;;;;;4.13;3.72;;;2.80;99.90;;;;;;4986311;28;20170;-67
2023/01/18 13:55:53;;;;;;;6.47;2.92;;;2.80;99.90;;;;;;5004246;28;20195;-66
2023/01/18 13:58:28;;;;;;;4.00;2.67;;;2.80;99.90;;;;;;5002847;28;20211;-68
2023/01/18 14:01:02;;;;;;;5.40;3.40;;;2.70;99.90;;;;;;5004154;28;20170;-67
2023/01/18 14:03:31;;;;;;;5.20;4.80;;;2.70;99.90;;;;;;5003980;28;20219;-69
2023/01/18 14:06:03;;;;;;;3.55;3.22;;;2.70;99.90;;;;;;5005841;28;20217;-68
2023/01/18 14:08:31;;;;;;;5.20;2.88;;;2.70;99.90;;;;;;5004182;28;20264;-66
2023/01/18 14:11:07;;;;;;;5.90;4.18;;;2.70;99.90;;;;;;4988108;28;20198;-69
2023/01/18 14:13:44;;;;;;;3.35;3.10;;;2.70;99.90;;;;;;5002887;28;20570;-67
2023/01/18 14:16:20;;;;;;;3.95;2.88;;;2.70;99.90;;;;;;5004113;28;20173;-66
2023/01/18 14:18:52;;;;;;;4.30;3.10;;;2.70;99.90;;;;;;5004875;28;20171;-70
2023/01/18 14:21:37;;;;;;;4.50;3.85;;;2.80;99.90;;;;;;5002744;28;20163;-67
2023/01/18 14:24:30;;;;;;;2.63;2.42;;;2.70;99.90;;;;;;5006369;28;20190;-68
2023/01/18 14:26:59;;;;;;;2.80;2.60;;;2.70;99.90;;;;;;4997601;28;20198;-68
2023/01/18 14:29:43;;;;;;;3.55;3.22;;;2.70;99.90;;;;;;4995623;28;20203;-66
2023/01/18 14:32:15;;;;;;;3.35;2.60;;;2.70;99.90;;;;;;5013235;28;20225;-66
2023/01/18 14:34:41;;;;;;;3.47;3.17;;;2.70;99.90;;;;;;5012780;28;20598;-66
2023/01/18 14:37:33;;;;;;;3.35;2.75;;;2.80;99.90;;;;;;5013219;28;20255;-66
2023/01/18 14:40:23;;;;;;;6.43;3.95;;;2.70;99.90;;;;;;4993847;28;20179;-67
2023/01/18 14:42:52;;;;;;;3.53;3.22;;;2.70;99.90;;;;;;4985862;28;20283;-71
2023/01/18 14:45:28;;;;;;;8.15;3.78;;;2.70;99.90;;;;;;4993463;28;20546;-69
2023/01/18 14:48:18;;;;;;;5.50;3.60;;;2.70;99.90;;;;;;4993537;28;20182;-70
2023/01/18 14:50:49;;;;;;;5.15;3.10;;;2.60;99.90;;;;;;4975886;28;20608;-70
2023/01/18 14:53:32;;;;;;;3.58;2.85;;;2.60;99.90;;;;;;5001431;28;20175;-70
2023/01/18 14:56:29;;;;;;;3.83;3.47;;;2.60;99.90;;;;;;5015879;28;20242;-70
2023/01/18 14:58:56;;;;;;;3.85;3.10;;;2.60;99.90;;;;;;5016039;28;20190;-71
2023/01/18 15:01:31;;;;;;;3.05;2.83;;;2.60;99.90;;;;;;5015425;28;20229;-70
2023/01/18 15:03:59;;;;;;;2.63;2.33;;;2.60;99.90;;;;;;4996396;28;20195;-68
2023/01/18 15:06:39;;;;;;;3.70;2.90;;;2.70;99.90;;;;;;5000350;28;20226;-67
2023/01/18 15:09:08;;;;;;;2.67;2.47;;;2.70;99.90;;;;;;5010757;28;20198;-68
2023/01/18 15:11:36;;;;;;;4.47;2.75;;;2.60;99.90;;;;;;5007327;28;20213;-66
2023/01/18 15:14:05;;;;;;;3.53;3.05;;;2.60;99.90;;;;;;5011606;28;20557;-67
2023/01/18 15:16:33;;;;;;;3.90;3.33;;;2.60;99.90;;;;;;4999171;28;20179;-68
2023/01/18 15:19:00;;;;;;;4.15;3.60;;;2.60;99.90;;;;;;5015984;28;20163;-66
2023/01/18 15:21:32;;;;;;;4.43;3.38;;;2.60;99.90;;;;;;5007930;28;20222;-71
2023/01/18 15:24:12;;;;;;;3.97;2.92;;;2.60;99.90;;;;;;5004378;28;20652;-70
2023/01/18 15:26:56;;;;;;;3.83;3.50;;;2.60;99.90;;;;;;5012414;28;20178;-65
2023/01/18 15:29:26;;;;;;;3.45;3.25;;;2.60;99.90;;;;;;5015766;28;20209;-66
2023/01/18 15:31:55;;;;;;;4.05;3.17;;;2.60;99.90;;;;;;5015636;28;20175;-66
2023/01/18 15:34:36;;;;;;;3.60;2.38;;;2.60;99.90;;;;;;5015459;28;20560;-66
2023/01/18 15:37:05;;;;;;;3.25;2.95;;;2.60;99.90;;;;;;5015919;28;20171;-65
2023/01/18 15:39:31;;;;;;;2.40;2.25;;;2.60;99.90;;;;;;5015715;28;20261;-67
2023/01/18 15:42:05;;;;;;;3.53;3.22;;;2.60;99.90;;;;;;5015809;28;20246;-66
2023/01/18 15:44:41;;;;;;;5.03;3.00;;;2.60;99.90;;;;;;5015690;28;20645;-66
2023/01/18 15:47:27;;;;;;;3.67;2.58;;;2.60;99.90;;;;;;5008640;28;20254;-67
2023/01/18 15:49:59;;;;;;;3.50;2.95;;;2.60;99.90;;;;;;4978536;28;20673;-66
2023/01/18 15:52:44;;;;;;;3.78;2.58;;;2.70;99.90;;;;;;4998656;28;20202;-66
2023/01/18 15:55:34;;;;;;;4.93;2.47;;;2.70;99.90;;;;;;5003630;28;20607;-65
2023/01/18 15:58:13;;;;;;;4.13;3.45;;;2.60;99.90;;;;;;5012947;28;20174;-65
2023/01/18 16:00:45;;;;;;;2.28;2.08;;;2.70;99.90;;;;;;5011671;28;20179;-65
2023/01/18 16:03:24;;;;;;;4.18;3.22;;;2.70;99.90;;;;;;4995912;28;20168;-65
2023/01/18 16:06:05;;;;;;;4.03;3.05;;;2.70;99.90;;;;;;4994964;28;20197;-65
2023/01/18 16:08:31;;;;;;;4.07;3.20;;;2.60;99.90;;;;;;4995786;28;20266;-66
2023/01/18 16:10:57;;;;;;;3.50;3.20;;;2.60;99.90;;;;;;5012116;28;20350;-65
2023/01/18 16:13:33;;;;;;;4.07;2.80;;;2.60;99.90;;;;;;5011261;28;20473;-63
2023/01/18 16:16:18;;;;;;;3.13;2.75;;;2.50;99.90;;;;;;5006153;28;20600;-63
2023/01/18 16:19:09;;;;;;;2.72;2.40;;;2.50;99.90;;;;;;5004319;28;20521;-64
2023/01/18 16:21:44;;;;;;;3.92;2.88;;;2.60;99.90;;;;;;5005749;28;20537;-64
2023/01/18 16:24:16;;;;;;;3.63;3.25;;;2.50;99.90;;;;;;5005319;28;20197;-66
2023/01/18 16:26:42;;;;;;;4.22;3.17;;;2.60;99.90;;;;;;5005396;28;20171;-65
2023/01/18 16:29:09;;;;;;;6.05;4.22;;;2.50;99.90;;;;;;5006066;28;20199;-68
2023/01/18 16:31:39;;;;;;;5.00;2.92;;;2.50;99.90;;;;;;5004817;28;20202;-66
2023/01/18 16:34:20;;;;;;;4.18;2.72;;;2.50;99.90;;;;;;5005063;28;20206;-67
2023/01/18 16:36:47;;;;;;;5.18;3.58;;;2.50;99.90;;;;;;5005476;28;20170;-66
2023/01/18 16:39:12;;;;;;;3.15;2.90;;;2.50;99.90;;;;;;5003787;28;20179;-66
2023/01/18 16:41:40;;;;;;;3.37;2.67;;;2.50;99.90;;;;;;5004003;28;20707;-67
2023/01/18 16:44:06;;;;;;;4.32;3.88;;;2.50;99.90;;;;;;5005003;28;20225;-66
2023/01/18 16:46:35;;;;;;;6.10;3.23;;;2.50;99.90;;;;;;5014627;28;20179;-68
2023/01/18 16:49:00;;;;;;;3.92;2.42;;;2.40;99.90;;;;;;5014579;28;20241;-70
2023/01/18 16:51:27;;;;;;;4.80;3.13;;;2.40;99.90;;;;;;5014268;28;20203;-70
2023/01/18 16:53:54;;;;;;;3.30;3.00;;;2.40;99.90;;;;;;4990225;28;20679;-67
2023/01/18 16:56:20;;;;;;;5.50;3.60;;;2.40;99.90;;;;;;5002536;28;20498;-67
2023/01/18 16:58:47;;;;;;;2.63;2.42;;;2.40;99.90;;;;;;5007073;28;20174;-66
2023/01/18 17:01:14;;;;;;;4.25;3.22;;;2.40;99.90;;;;;;5010777;28;20163;-65
2023/01/18 17:03:41;;;;;;;7.03;3.13;;;2.30;99.90;;;;;;5004579;28;20176;-71
2023/01/18 17:06:16;;;;;;;3.88;3.50;;;2.30;99.90;;;;;;5003404;28;20187;-66
2023/01/18 17:08:42;;;;;;;4.07;2.90;;;2.30;99.90;;;;;;4994478;28;20179;-67
2023/01/18 17:11:11;;;;;;;3.85;3.50;;;2.30;99.90;;;;;;5002215;28;20168;-67
2023/01/18 17:13:37;;;;;;;4.10;3.70;;;2.20;99.90;;;;;;4995766;28;20254;-67
2023/01/18 17:16:03;;;;;;;3.55;2.60;;;2.20;99.90;;;;;;5013896;28;20611;-67
2023/01/18 17:18:29;;;;;;;4.33;3.07;;;2.10;99.90;;;;;;5004109;28;20258;-67
2023/01/18 17:20:54;;;;;;;5.07;3.23;;;2.10;99.90;;;;;;5012438;28;20535;-67
2023/01/18 17:23:20;;;;;;;3.37;3.07;;;2.10;99.90;;;;;;5006324;28;20198;-67
2023/01/18 17:25:46;;;;;;;4.10;3.47;;;2.10;99.90;;;;;;5008875;28;20202;-66
2023/01/18 17:28:15;;;;;;;5.82;3.33;;;2.10;99.90;;;;;;5014071;28;20202;-65
2023/01/18 17:30:42;;;;;;;4.82;3.40;;;2.10;99.90;;;;;;5013671;28;20224;-67
2023/01/18 17:33:20;;;;;;;4.00;3.65;;;2.10;99.90;;;;;;5012814;28;20244;-67
2023/01/18 17:35:47;;;;;;;8.02;3.65;;;2.10;99.90;;;;;;5013395;28;20198;-69
2023/01/18 17:38:12;;;;;;;4.43;3.13;;;2.10;99.90;;;;;;5013998;28;20175;-69
2023/01/18 17:40:38;;;;;;;4.67;3.10;;;2.10;99.90;;;;;;5013806;28;20175;-67
2023/01/18 17:43:04;;;;;;;5.95;4.30;;;2.00;99.90;;;;;;5000599;28;20181;-67
2023/01/18 17:45:30;;;;;;;4.10;3.27;;;2.00;99.90;;;;;;5013364;28;20206;-66
2023/01/18 17:47:55;;;;;;;5.20;4.10;;;2.00;99.90;;;;;;5013052;28;20675;-65
2023/01/18 17:50:23;;;;;;;4.70;3.17;;;1.90;99.90;;;;;;5002948;28;20245;-66
2023/01/18 17:52:50;;;;;;;3.67;3.35;;;1.90;99.90;;;;;;5007398;28;20189;-67
2023/01/18 17:55:16;;;;;;;3.78;3.30;;;1.90;99.90;;;;;;5004754;28;20629;-66
2023/01/18 17:57:43;;;;;;;3.97;3.40;;;1.90;99.90;;;;;;5002549;28;20231;-66
2023/01/18 18:00:12;;;;;;;3.97;3.50;;;1.80;99.90;;;;;;5004208;28;20578;-69
2023/01/18 18:02:38;;;;;;;3.30;3.00;;;1.80;99.90;;;;;;5003549;28;20194;-68
2023/01/18 18:05:05;;;;;;;3.97;3.45;;;1.70;99.90;;;;;;5004155;28;20317;-68
2023/01/18 18:07:31;;;;;;;2.90;2.63;;;1.60;99.90;;;;;;4990186;28;20186;-66
2023/01/18 18:09:59;;;;;;;3.53;3.10;;;1.60;99.90;;;;;;5003900;28;20211;-68
2023/01/18 18:12:31;;;;;;;6.60;4.10;;;1.60;99.90;;;;;;5002987;28;20191;-69
2023/01/18 18:14:56;;;;;;;3.13;2.22;;;1.50;99.90;;;;;;5004103;28;20209;-69
2023/01/18 18:17:24;;;;;;;4.93;3.63;;;1.40;99.90;;;;;;5005401;28;20183;-67
2023/01/18 18:19:50;;;;;;;3.95;3.30;;;1.40;99.90;;;;;;4978711;28;20465;-65
2023/01/18 18:22:16;;;;;;;3.20;2.90;;;1.30;99.90;;;;;;4999866;28;20593;-66
2023/01/18 18:24:42;;;;;;;4.03;3.30;;;1.20;99.90;;;;;;4995256;28;20429;-66
2023/01/18 18:27:07;;;;;;;3.77;3.10;;;1.20;99.90;;;;;;5013277;28;20178;-66